sensor_id;sensor_type;location;lat;lon;timestamp;temperature;humidity
8862;DHT22;4799;50.996;4.754;2022-08-25T00:01:19;22.30;99.90
8862;DHT22;4799;50.996;4.754;2022-08-25T00:03:46;22.30;99.90
8862;DHT22;4799;50.996;4.754;2022-08-25T00:06:12;22.20;99.90
8862;DHT22;4799;50.996;4.754;2022-08-25T00:08:39;22.20;99.90
8862;DHT22;4799;50.996;4.754;2022-08-25T00:11:15;22.10;99.90
8862;DHT22;4799;50.996;4.754;2022-08-25T00:13:43;22.10;99.90
8862;DHT22;4799;50.996;4.754;2022-08-25T00:16:14;22.10;99.90
8862;DHT22;4799;50.996;4.754;2022-08-25T00:18:43;22.00;99.90
8862;DHT22;4799;50.996;4.754;2022-08-25T00:21:11;21.90;99.90
8862;DHT22;4799;50.996;4.754;2022-08-25T00:23:37;21.90;99.90
8862;DHT22;4799;50.996;4.754;2022-08-25T00:26:04;21.80;99.90
8862;DHT22;4799;50.996;4.754;2022-08-25T00:28:30;21.80;99.90
8862;DHT22;4799;50.996;4.754;2022-08-25T00:30:56;21.70;99.90
8862;DHT22;4799;50.996;4.754;2022-08-25T00:33:24;21.70;99.90
8862;DHT22;4799;50.996;4.754;2022-08-25T00:35:51;21.70;99.90
8862;DHT22;4799;50.996;4.754;2022-08-25T00:38:17;21.60;99.90
8862;DHT22;4799;50.996;4.754;2022-08-25T00:40:43;21.50;99.90
8862;DHT22;4799;50.996;4.754;2022-08-25T00:43:11;21.50;99.90
8862;DHT22;4799;50.996;4.754;2022-08-25T00:45:37;21.50;99.90
8862;DHT22;4799;50.996;4.754;2022-08-25T00:48:04;21.40;99.90
8862;DHT22;4799;50.996;4.754;2022-08-25T00:50:31;21.40;99.90
8862;DHT22;4799;50.996;4.754;2022-08-25T00:53:01;21.40;99.90
8862;DHT22;4799;50.996;4.754;2022-08-25T00:55:30;21.40;99.90
8862;DHT22;4799;50.996;4.754;2022-08-25T00:58:06;21.30;99.90
8862;DHT22;4799;50.996;4.754;2022-08-25T01:00:37;21.30;99.90
8862;DHT22;4799;50.996;4.754;2022-08-25T01:03:04;21.20;99.90
8862;DHT22;4799;50.996;4.754;2022-08-25T01:05:31;21.20;99.90
8862;DHT22;4799;50.996;4.754;2022-08-25T01:07:59;21.10;99.90
8862;DHT22;4799;50.996;4.754;2022-08-25T01:10:28;21.10;99.90
8862;DHT22;4799;50.996;4.754;2022-08-25T01:12:59;21.00;99.90
8862;DHT22;4799;50.996;4.754;2022-08-25T01:15:26;21.00;99.90
8862;DHT22;4799;50.996;4.754;2022-08-25T01:17:55;20.90;99.90
8862;DHT22;4799;50.996;4.754;2022-08-25T01:20:24;20.90;99.90
8862;DHT22;4799;50.996;4.754;2022-08-25T01:22:50;20.80;99.90
8862;DHT22;4799;50.996;4.754;2022-08-25T01:28:04;20.80;99.90
8862;DHT22;4799;50.996;4.754;2022-08-25T01:30:30;20.70;99.90
8862;DHT22;4799;50.996;4.754;2022-08-25T01:32:56;20.70;99.90
8862;DHT22;4799;50.996;4.754;2022-08-25T01:35:22;20.70;99.90
8862;DHT22;4799;50.996;4.754;2022-08-25T01:37:49;20.60;99.90
8862;DHT22;4799;50.996;4.754;2022-08-25T01:40:14;20.60;99.90
8862;DHT22;4799;50.996;4.754;2022-08-25T01:42:56;20.60;99.90
8862;DHT22;4799;50.996;4.754;2022-08-25T01:45:25;20.60;99.90
8862;DHT22;4799;50.996;4.754;2022-08-25T01:47:51;20.60;99.90
8862;DHT22;4799;50.996;4.754;2022-08-25T01:50:16;20.60;99.90
8862;DHT22;4799;50.996;4.754;2022-08-25T01:55:21;20.50;99.90
8862;DHT22;4799;50.996;4.754;2022-08-25T01:57:47;20.50;99.90
8862;DHT22;4799;50.996;4.754;2022-08-25T02:00:14;20.40;99.90
8862;DHT22;4799;50.996;4.754;2022-08-25T02:02:40;20.40;99.90
8862;DHT22;4799;50.996;4.754;2022-08-25T02:05:08;20.40;99.90
8862;DHT22;4799;50.996;4.754;2022-08-25T02:07:35;20.40;99.90
8862;DHT22;4799;50.996;4.754;2022-08-25T02:10:02;20.30;99.90
8862;DHT22;4799;50.996;4.754;2022-08-25T02:12:31;20.30;99.90
8862;DHT22;4799;50.996;4.754;2022-08-25T02:14:58;20.30;99.90
8862;DHT22;4799;50.996;4.754;2022-08-25T02:17:27;20.20;99.90
8862;DHT22;4799;50.996;4.754;2022-08-25T02:19:53;20.10;99.90
8862;DHT22;4799;50.996;4.754;2022-08-25T02:22:22;20.10;99.90
8862;DHT22;4799;50.996;4.754;2022-08-25T02:24:48;20.00;99.90
8862;DHT22;4799;50.996;4.754;2022-08-25T02:27:15;20.00;99.90
8862;DHT22;4799;50.996;4.754;2022-08-25T02:29:41;20.00;99.90
8862;DHT22;4799;50.996;4.754;2022-08-25T02:32:07;19.90;99.90
8862;DHT22;4799;50.996;4.754;2022-08-25T02:34:33;19.90;99.90
8862;DHT22;4799;50.996;4.754;2022-08-25T02:37:00;19.90;99.90
8862;DHT22;4799;50.996;4.754;2022-08-25T02:39:27;19.80;99.90
8862;DHT22;4799;50.996;4.754;2022-08-25T02:41:52;19.80;99.90
8862;DHT22;4799;50.996;4.754;2022-08-25T02:44:18;19.80;99.90
8862;DHT22;4799;50.996;4.754;2022-08-25T02:46:44;19.80;99.90
8862;DHT22;4799;50.996;4.754;2022-08-25T02:49:10;19.70;99.90
8862;DHT22;4799;50.996;4.754;2022-08-25T02:51:36;19.70;99.90
8862;DHT22;4799;50.996;4.754;2022-08-25T02:54:03;19.70;99.90
8862;DHT22;4799;50.996;4.754;2022-08-25T02:56:30;19.70;99.90
8862;DHT22;4799;50.996;4.754;2022-08-25T02:58:56;19.70;99.90
8862;DHT22;4799;50.996;4.754;2022-08-25T03:01:22;19.70;99.90
8862;DHT22;4799;50.996;4.754;2022-08-25T03:03:50;19.70;99.90
8862;DHT22;4799;50.996;4.754;2022-08-25T03:06:18;19.60;99.90
8862;DHT22;4799;50.996;4.754;2022-08-25T03:08:47;19.60;99.90
8862;DHT22;4799;50.996;4.754;2022-08-25T03:11:13;19.60;99.90
8862;DHT22;4799;50.996;4.754;2022-08-25T03:13:39;19.60;99.90
8862;DHT22;4799;50.996;4.754;2022-08-25T03:16:06;19.60;99.90
8862;DHT22;4799;50.996;4.754;2022-08-25T03:18:33;19.50;99.90
8862;DHT22;4799;50.996;4.754;2022-08-25T03:20:59;19.50;99.90
8862;DHT22;4799;50.996;4.754;2022-08-25T03:23:25;19.50;99.90
8862;DHT22;4799;50.996;4.754;2022-08-25T03:25:53;19.50;99.90
8862;DHT22;4799;50.996;4.754;2022-08-25T03:28:37;19.50;99.90
8862;DHT22;4799;50.996;4.754;2022-08-25T03:31:03;19.50;99.90
8862;DHT22;4799;50.996;4.754;2022-08-25T03:33:30;19.50;99.90
8862;DHT22;4799;50.996;4.754;2022-08-25T03:35:56;19.50;99.90
8862;DHT22;4799;50.996;4.754;2022-08-25T03:38:23;19.50;99.90
8862;DHT22;4799;50.996;4.754;2022-08-25T03:40:50;19.40;99.90
8862;DHT22;4799;50.996;4.754;2022-08-25T03:43:16;19.40;99.90
8862;DHT22;4799;50.996;4.754;2022-08-25T03:45:43;19.40;99.90
8862;DHT22;4799;50.996;4.754;2022-08-25T03:48:10;19.50;99.90
8862;DHT22;4799;50.996;4.754;2022-08-25T03:50:36;19.50;99.90
8862;DHT22;4799;50.996;4.754;2022-08-25T03:53:07;19.40;99.90
8862;DHT22;4799;50.996;4.754;2022-08-25T03:55:33;19.40;99.90
8862;DHT22;4799;50.996;4.754;2022-08-25T03:57:59;19.40;99.90
8862;DHT22;4799;50.996;4.754;2022-08-25T04:00:25;19.40;99.90
8862;DHT22;4799;50.996;4.754;2022-08-25T04:02:50;19.40;99.90
8862;DHT22;4799;50.996;4.754;2022-08-25T04:05:16;19.40;99.90
8862;DHT22;4799;50.996;4.754;2022-08-25T04:07:42;19.40;99.90
8862;DHT22;4799;50.996;4.754;2022-08-25T04:10:09;19.30;99.90
8862;DHT22;4799;50.996;4.754;2022-08-25T04:12:35;19.30;99.90
8862;DHT22;4799;50.996;4.754;2022-08-25T04:15:05;19.30;99.90
8862;DHT22;4799;50.996;4.754;2022-08-25T04:17:32;19.30;99.90
8862;DHT22;4799;50.996;4.754;2022-08-25T04:19:58;19.30;99.90
8862;DHT22;4799;50.996;4.754;2022-08-25T04:22:26;19.20;99.90
8862;DHT22;4799;50.996;4.754;2022-08-25T04:24:51;19.20;99.90
8862;DHT22;4799;50.996;4.754;2022-08-25T04:27:17;19.20;99.90
8862;DHT22;4799;50.996;4.754;2022-08-25T04:29:43;19.20;99.90
8862;DHT22;4799;50.996;4.754;2022-08-25T04:32:10;19.30;99.90
8862;DHT22;4799;50.996;4.754;2022-08-25T04:34:36;19.30;99.90
8862;DHT22;4799;50.996;4.754;2022-08-25T04:37:03;19.30;99.90
8862;DHT22;4799;50.996;4.754;2022-08-25T04:39:31;19.20;99.90
8862;DHT22;4799;50.996;4.754;2022-08-25T04:41:56;19.20;99.90
8862;DHT22;4799;50.996;4.754;2022-08-25T04:44:25;19.20;99.90
8862;DHT22;4799;50.996;4.754;2022-08-25T04:46:50;19.20;99.90
8862;DHT22;4799;50.996;4.754;2022-08-25T04:49:16;19.20;99.90
8862;DHT22;4799;50.996;4.754;2022-08-25T04:51:43;19.20;99.90
8862;DHT22;4799;50.996;4.754;2022-08-25T04:54:12;19.10;99.90
8862;DHT22;4799;50.996;4.754;2022-08-25T04:56:39;19.20;99.90
8862;DHT22;4799;50.996;4.754;2022-08-25T04:59:11;19.20;99.90
8862;DHT22;4799;50.996;4.754;2022-08-25T05:01:39;19.20;99.90
8862;DHT22;4799;50.996;4.754;2022-08-25T05:04:07;19.20;99.90
8862;DHT22;4799;50.996;4.754;2022-08-25T05:06:33;19.30;99.90
8862;DHT22;4799;50.996;4.754;2022-08-25T05:09:00;19.30;99.90
8862;DHT22;4799;50.996;4.754;2022-08-25T05:11:26;19.50;99.90
8862;DHT22;4799;50.996;4.754;2022-08-25T05:13:54;19.50;99.90
8862;DHT22;4799;50.996;4.754;2022-08-25T05:16:21;19.50;99.90
8862;DHT22;4799;50.996;4.754;2022-08-25T05:18:48;19.50;99.90
8862;DHT22;4799;50.996;4.754;2022-08-25T05:21:16;19.50;99.90
8862;DHT22;4799;50.996;4.754;2022-08-25T05:23:43;19.50;99.90
8862;DHT22;4799;50.996;4.754;2022-08-25T05:26:19;19.50;99.90
8862;DHT22;4799;50.996;4.754;2022-08-25T05:28:45;19.60;99.90
8862;DHT22;4799;50.996;4.754;2022-08-25T05:31:13;19.60;99.90
8862;DHT22;4799;50.996;4.754;2022-08-25T05:33:40;19.70;99.90
8862;DHT22;4799;50.996;4.754;2022-08-25T05:36:07;19.70;99.90
8862;DHT22;4799;50.996;4.754;2022-08-25T05:38:33;19.80;99.90
8862;DHT22;4799;50.996;4.754;2022-08-25T05:41:03;19.90;99.90
8862;DHT22;4799;50.996;4.754;2022-08-25T05:43:29;19.90;99.90
8862;DHT22;4799;50.996;4.754;2022-08-25T05:45:55;20.00;99.90
8862;DHT22;4799;50.996;4.754;2022-08-25T05:48:22;20.10;99.90
8862;DHT22;4799;50.996;4.754;2022-08-25T05:50:57;20.20;99.90
8862;DHT22;4799;50.996;4.754;2022-08-25T05:53:23;20.30;99.90
8862;DHT22;4799;50.996;4.754;2022-08-25T05:55:51;20.40;99.90
8862;DHT22;4799;50.996;4.754;2022-08-25T05:58:17;20.50;99.90
8862;DHT22;4799;50.996;4.754;2022-08-25T06:00:43;20.60;99.90
8862;DHT22;4799;50.996;4.754;2022-08-25T06:03:09;20.70;99.90
8862;DHT22;4799;50.996;4.754;2022-08-25T06:05:35;20.90;99.90
8862;DHT22;4799;50.996;4.754;2022-08-25T06:08:01;21.00;99.90
8862;DHT22;4799;50.996;4.754;2022-08-25T06:10:27;21.10;99.90
8862;DHT22;4799;50.996;4.754;2022-08-25T06:12:52;21.10;99.90
8862;DHT22;4799;50.996;4.754;2022-08-25T06:15:20;21.30;99.90
8862;DHT22;4799;50.996;4.754;2022-08-25T06:17:51;21.40;99.90
8862;DHT22;4799;50.996;4.754;2022-08-25T06:20:22;21.50;99.90
8862;DHT22;4799;50.996;4.754;2022-08-25T06:22:48;21.60;99.90
8862;DHT22;4799;50.996;4.754;2022-08-25T06:25:18;21.70;99.90
8862;DHT22;4799;50.996;4.754;2022-08-25T06:27:44;21.80;99.90
8862;DHT22;4799;50.996;4.754;2022-08-25T06:30:12;21.90;99.90
8862;DHT22;4799;50.996;4.754;2022-08-25T06:32:41;22.00;99.90
8862;DHT22;4799;50.996;4.754;2022-08-25T06:35:09;22.00;99.90
8862;DHT22;4799;50.996;4.754;2022-08-25T06:37:36;22.10;99.90
8862;DHT22;4799;50.996;4.754;2022-08-25T06:40:05;22.20;99.90
8862;DHT22;4799;50.996;4.754;2022-08-25T06:42:32;22.30;99.90
8862;DHT22;4799;50.996;4.754;2022-08-25T06:44:57;22.30;99.90
8862;DHT22;4799;50.996;4.754;2022-08-25T06:47:23;22.40;99.90
8862;DHT22;4799;50.996;4.754;2022-08-25T06:49:49;22.50;99.90
8862;DHT22;4799;50.996;4.754;2022-08-25T06:52:15;22.60;99.90
8862;DHT22;4799;50.996;4.754;2022-08-25T06:54:41;22.60;99.90
8862;DHT22;4799;50.996;4.754;2022-08-25T06:57:07;22.60;99.90
8862;DHT22;4799;50.996;4.754;2022-08-25T06:59:34;22.70;99.90
8862;DHT22;4799;50.996;4.754;2022-08-25T07:02:02;22.80;99.80
8862;DHT22;4799;50.996;4.754;2022-08-25T07:04:28;22.90;99.20
8862;DHT22;4799;50.996;4.754;2022-08-25T07:06:54;23.00;99.20
8862;DHT22;4799;50.996;4.754;2022-08-25T07:09:20;23.00;99.20
8862;DHT22;4799;50.996;4.754;2022-08-25T07:11:46;23.10;98.90
8862;DHT22;4799;50.996;4.754;2022-08-25T07:14:13;23.20;99.00
8862;DHT22;4799;50.996;4.754;2022-08-25T07:16:40;23.30;98.60
8862;DHT22;4799;50.996;4.754;2022-08-25T07:19:07;23.40;98.40
8862;DHT22;4799;50.996;4.754;2022-08-25T07:21:35;23.50;98.20
8862;DHT22;4799;50.996;4.754;2022-08-25T07:24:10;23.60;98.10
8862;DHT22;4799;50.996;4.754;2022-08-25T07:26:39;23.70;97.30
8862;DHT22;4799;50.996;4.754;2022-08-25T07:29:22;23.80;97.00
8862;DHT22;4799;50.996;4.754;2022-08-25T07:31:48;24.00;96.50
8862;DHT22;4799;50.996;4.754;2022-08-25T07:34:14;24.10;96.30
8862;DHT22;4799;50.996;4.754;2022-08-25T07:36:58;24.30;96.20
8862;DHT22;4799;50.996;4.754;2022-08-25T07:39:25;24.50;94.50
8862;DHT22;4799;50.996;4.754;2022-08-25T07:41:52;24.70;95.00
8862;DHT22;4799;50.996;4.754;2022-08-25T07:44:20;24.80;93.60
8862;DHT22;4799;50.996;4.754;2022-08-25T07:46:47;24.90;94.40
8862;DHT22;4799;50.996;4.754;2022-08-25T07:49:13;25.00;94.10
8862;DHT22;4799;50.996;4.754;2022-08-25T07:51:39;25.10;94.00
8862;DHT22;4799;50.996;4.754;2022-08-25T07:54:05;25.20;93.40
8862;DHT22;4799;50.996;4.754;2022-08-25T07:56:31;25.20;92.50
8862;DHT22;4799;50.996;4.754;2022-08-25T07:58:57;25.30;92.20
8862;DHT22;4799;50.996;4.754;2022-08-25T08:01:24;25.40;92.20
8862;DHT22;4799;50.996;4.754;2022-08-25T08:03:50;25.50;92.60
8862;DHT22;4799;50.996;4.754;2022-08-25T08:06:19;25.60;91.50
8862;DHT22;4799;50.996;4.754;2022-08-25T08:08:46;25.70;91.00
8862;DHT22;4799;50.996;4.754;2022-08-25T08:11:19;25.90;90.60
8862;DHT22;4799;50.996;4.754;2022-08-25T08:13:46;26.00;89.10
8862;DHT22;4799;50.996;4.754;2022-08-25T08:16:13;26.10;89.50
8862;DHT22;4799;50.996;4.754;2022-08-25T08:18:41;26.20;87.70
8862;DHT22;4799;50.996;4.754;2022-08-25T08:21:21;26.30;87.70
8862;DHT22;4799;50.996;4.754;2022-08-25T08:23:47;26.40;86.30
8862;DHT22;4799;50.996;4.754;2022-08-25T08:26:14;26.60;85.80
8862;DHT22;4799;50.996;4.754;2022-08-25T08:28:39;26.80;86.00
8862;DHT22;4799;50.996;4.754;2022-08-25T08:31:05;26.90;83.20
8862;DHT22;4799;50.996;4.754;2022-08-25T08:33:32;27.10;82.20
8862;DHT22;4799;50.996;4.754;2022-08-25T08:36:04;27.20;79.40
8862;DHT22;4799;50.996;4.754;2022-08-25T08:38:30;27.20;80.30
8862;DHT22;4799;50.996;4.754;2022-08-25T08:52:36;27.80;73.80
8862;DHT22;4799;50.996;4.754;2022-08-25T08:55:14;27.70;74.90
8862;DHT22;4799;50.996;4.754;2022-08-25T08:57:46;27.70;75.20
8862;DHT22;4799;50.996;4.754;2022-08-25T09:00:14;27.80;75.40
8862;DHT22;4799;50.996;4.754;2022-08-25T09:05:19;27.80;74.20
8862;DHT22;4799;50.996;4.754;2022-08-25T09:07:49;27.70;76.00
8862;DHT22;4799;50.996;4.754;2022-08-25T09:10:17;27.70;76.60
8862;DHT22;4799;50.996;4.754;2022-08-25T09:13:10;27.80;76.20
8862;DHT22;4799;50.996;4.754;2022-08-25T09:15:46;27.80;76.70
8862;DHT22;4799;50.996;4.754;2022-08-25T09:18:57;27.80;75.90
8862;DHT22;4799;50.996;4.754;2022-08-25T09:21:34;28.00;74.10
8862;DHT22;4799;50.996;4.754;2022-08-25T09:24:31;28.00;74.80
8862;DHT22;4799;50.996;4.754;2022-08-25T09:32:33;28.20;71.90
8862;DHT22;4799;50.996;4.754;2022-08-25T09:35:00;28.30;72.20
8862;DHT22;4799;50.996;4.754;2022-08-25T09:37:27;28.30;73.30
8862;DHT22;4799;50.996;4.754;2022-08-25T09:39:53;28.40;71.30
8862;DHT22;4799;50.996;4.754;2022-08-25T09:42:19;28.40;70.40
8862;DHT22;4799;50.996;4.754;2022-08-25T09:44:46;28.50;68.30
8862;DHT22;4799;50.996;4.754;2022-08-25T09:47:22;28.60;66.60
8862;DHT22;4799;50.996;4.754;2022-08-25T09:50:03;28.60;67.30
8862;DHT22;4799;50.996;4.754;2022-08-25T09:52:38;28.70;65.70
8862;DHT22;4799;50.996;4.754;2022-08-25T10:03:10;28.90;64.50
8862;DHT22;4799;50.996;4.754;2022-08-25T10:06:02;29.00;65.60
8862;DHT22;4799;50.996;4.754;2022-08-25T10:10:59;29.10;61.70
8862;DHT22;4799;50.996;4.754;2022-08-25T10:13:44;29.20;61.00
8862;DHT22;4799;50.996;4.754;2022-08-25T10:16:27;29.30;59.60
8862;DHT22;4799;50.996;4.754;2022-08-25T10:19:12;29.40;59.50
8862;DHT22;4799;50.996;4.754;2022-08-25T10:21:42;29.40;59.80
8862;DHT22;4799;50.996;4.754;2022-08-25T10:24:09;29.50;58.80
8862;DHT22;4799;50.996;4.754;2022-08-25T10:27:13;29.60;58.30
8862;DHT22;4799;50.996;4.754;2022-08-25T10:35:09;29.80;58.30
8862;DHT22;4799;50.996;4.754;2022-08-25T10:38:41;29.90;57.00
8862;DHT22;4799;50.996;4.754;2022-08-25T10:40:54;29.90;56.20
8862;DHT22;4799;50.996;4.754;2022-08-25T10:46:25;30.00;55.20
8862;DHT22;4799;50.996;4.754;2022-08-25T10:54:19;30.20;54.10
8862;DHT22;4799;50.996;4.754;2022-08-25T11:05:09;30.50;52.70
8862;DHT22;4799;50.996;4.754;2022-08-25T11:07:41;30.50;51.60
8862;DHT22;4799;50.996;4.754;2022-08-25T11:10:16;30.50;51.70
8862;DHT22;4799;50.996;4.754;2022-08-25T11:12:56;30.60;51.30
8862;DHT22;4799;50.996;4.754;2022-08-25T11:15:50;30.70;52.10
8862;DHT22;4799;50.996;4.754;2022-08-25T11:18:16;30.80;51.50
8862;DHT22;4799;50.996;4.754;2022-08-25T11:23:39;31.00;51.70
8862;DHT22;4799;50.996;4.754;2022-08-25T11:26:11;31.10;51.20
8862;DHT22;4799;50.996;4.754;2022-08-25T11:29:16;31.10;51.40
8862;DHT22;4799;50.996;4.754;2022-08-25T11:31:46;31.30;51.10
8862;DHT22;4799;50.996;4.754;2022-08-25T11:34:13;31.40;50.60
8862;DHT22;4799;50.996;4.754;2022-08-25T11:36:42;31.50;50.70
8862;DHT22;4799;50.996;4.754;2022-08-25T11:39:43;31.40;49.60
8862;DHT22;4799;50.996;4.754;2022-08-25T11:42:55;31.30;48.70
8862;DHT22;4799;50.996;4.754;2022-08-25T11:51:26;31.60;48.20
8862;DHT22;4799;50.996;4.754;2022-08-25T11:54:17;31.70;48.20
8862;DHT22;4799;50.996;4.754;2022-08-25T12:02:36;31.80;47.50
8862;DHT22;4799;50.996;4.754;2022-08-25T12:06:12;31.90;48.30
8862;DHT22;4799;50.996;4.754;2022-08-25T12:11:00;32.00;47.40
8862;DHT22;4799;50.996;4.754;2022-08-25T12:13:45;32.10;47.10
8862;DHT22;4799;50.996;4.754;2022-08-25T12:24:50;32.10;46.00
8862;DHT22;4799;50.996;4.754;2022-08-25T12:30:13;31.90;46.30
8862;DHT22;4799;50.996;4.754;2022-08-25T12:38:13;32.20;46.70
8862;DHT22;4799;50.996;4.754;2022-08-25T12:45:51;32.50;46.40
8862;DHT22;4799;50.996;4.754;2022-08-25T12:53:38;32.70;45.20
8862;DHT22;4799;50.996;4.754;2022-08-25T12:56:44;32.70;46.20
8862;DHT22;4799;50.996;4.754;2022-08-25T12:59:19;32.80;45.70
8862;DHT22;4799;50.996;4.754;2022-08-25T13:15:41;33.60;44.30
8862;DHT22;4799;50.996;4.754;2022-08-25T13:18:18;33.70;44.10
8862;DHT22;4799;50.996;4.754;2022-08-25T13:20:44;33.80;43.10
8862;DHT22;4799;50.996;4.754;2022-08-25T13:23:11;33.70;43.10
8862;DHT22;4799;50.996;4.754;2022-08-25T13:25:46;33.90;43.70
8862;DHT22;4799;50.996;4.754;2022-08-25T13:28:22;34.00;43.20
8862;DHT22;4799;50.996;4.754;2022-08-25T13:30:56;34.10;43.50
8862;DHT22;4799;50.996;4.754;2022-08-25T13:33:22;34.20;43.20
8862;DHT22;4799;50.996;4.754;2022-08-25T13:35:54;34.30;43.70
8862;DHT22;4799;50.996;4.754;2022-08-25T13:38:39;34.30;43.20
8862;DHT22;4799;50.996;4.754;2022-08-25T13:41:07;34.30;43.60
8862;DHT22;4799;50.996;4.754;2022-08-25T13:43:34;34.30;42.60
8862;DHT22;4799;50.996;4.754;2022-08-25T13:46:00;34.40;42.70
8862;DHT22;4799;50.996;4.754;2022-08-25T13:48:39;34.30;43.10
8862;DHT22;4799;50.996;4.754;2022-08-25T13:51:25;34.20;42.80
8862;DHT22;4799;50.996;4.754;2022-08-25T13:54:06;34.30;43.30
8862;DHT22;4799;50.996;4.754;2022-08-25T13:56:39;34.30;42.90
8862;DHT22;4799;50.996;4.754;2022-08-25T13:59:35;34.40;43.20
8862;DHT22;4799;50.996;4.754;2022-08-25T14:02:02;34.50;42.80
8862;DHT22;4799;50.996;4.754;2022-08-25T14:04:43;34.60;43.10
8862;DHT22;4799;50.996;4.754;2022-08-25T14:12:39;35.00;42.40
8862;DHT22;4799;50.996;4.754;2022-08-25T14:17:58;35.20;41.50
8862;DHT22;4799;50.996;4.754;2022-08-25T14:20:26;35.30;41.70
8862;DHT22;4799;50.996;4.754;2022-08-25T14:23:04;35.40;41.70
8862;DHT22;4799;50.996;4.754;2022-08-25T14:25:30;35.50;41.40
8862;DHT22;4799;50.996;4.754;2022-08-25T14:28:04;35.50;41.80
8862;DHT22;4799;50.996;4.754;2022-08-25T14:30:33;35.50;40.70
8862;DHT22;4799;50.996;4.754;2022-08-25T14:33:01;35.60;41.30
8862;DHT22;4799;50.996;4.754;2022-08-25T14:35:27;35.60;41.30
8862;DHT22;4799;50.996;4.754;2022-08-25T14:37:54;35.60;41.40
8862;DHT22;4799;50.996;4.754;2022-08-25T14:40:20;35.50;41.00
8862;DHT22;4799;50.996;4.754;2022-08-25T14:42:46;35.40;40.60
8862;DHT22;4799;50.996;4.754;2022-08-25T14:45:17;35.20;41.00
8862;DHT22;4799;50.996;4.754;2022-08-25T14:47:44;35.00;41.30
8862;DHT22;4799;50.996;4.754;2022-08-25T14:50:11;34.80;41.70
8862;DHT22;4799;50.996;4.754;2022-08-25T14:52:40;34.70;42.00
8862;DHT22;4799;50.996;4.754;2022-08-25T14:55:08;34.50;42.30
8862;DHT22;4799;50.996;4.754;2022-08-25T14:57:34;34.50;42.40
8862;DHT22;4799;50.996;4.754;2022-08-25T15:00:00;34.30;42.10
8862;DHT22;4799;50.996;4.754;2022-08-25T15:02:28;34.20;42.90
8862;DHT22;4799;50.996;4.754;2022-08-25T15:05:03;34.10;42.90
8862;DHT22;4799;50.996;4.754;2022-08-25T15:07:34;34.10;42.40
8862;DHT22;4799;50.996;4.754;2022-08-25T15:10:19;34.10;42.60
8862;DHT22;4799;50.996;4.754;2022-08-25T15:12:45;34.20;42.60
8862;DHT22;4799;50.996;4.754;2022-08-25T15:15:11;34.10;42.50
8862;DHT22;4799;50.996;4.754;2022-08-25T15:17:38;34.20;44.20
8862;DHT22;4799;50.996;4.754;2022-08-25T15:20:05;34.20;45.80
8862;DHT22;4799;50.996;4.754;2022-08-25T15:22:30;34.40;46.60
8862;DHT22;4799;50.996;4.754;2022-08-25T15:24:56;34.50;47.30
8862;DHT22;4799;50.996;4.754;2022-08-25T15:27:22;34.50;47.40
8862;DHT22;4799;50.996;4.754;2022-08-25T15:29:48;34.60;47.50
8862;DHT22;4799;50.996;4.754;2022-08-25T15:32:14;34.50;47.60
8862;DHT22;4799;50.996;4.754;2022-08-25T15:34:40;34.50;47.90
8862;DHT22;4799;50.996;4.754;2022-08-25T15:37:13;34.40;47.40
8862;DHT22;4799;50.996;4.754;2022-08-25T15:39:40;34.30;47.20
8862;DHT22;4799;50.996;4.754;2022-08-25T15:42:08;34.30;46.90
8862;DHT22;4799;50.996;4.754;2022-08-25T15:44:34;34.20;46.90
8862;DHT22;4799;50.996;4.754;2022-08-25T15:47:00;34.20;47.30
8862;DHT22;4799;50.996;4.754;2022-08-25T15:49:27;34.20;47.40
8862;DHT22;4799;50.996;4.754;2022-08-25T15:51:54;34.20;48.00
8862;DHT22;4799;50.996;4.754;2022-08-25T15:54:21;34.10;48.10
8862;DHT22;4799;50.996;4.754;2022-08-25T15:56:46;34.10;48.20
8862;DHT22;4799;50.996;4.754;2022-08-25T15:59:13;34.00;48.30
8862;DHT22;4799;50.996;4.754;2022-08-25T16:01:39;34.00;48.30
8862;DHT22;4799;50.996;4.754;2022-08-25T16:04:06;34.10;48.50
8862;DHT22;4799;50.996;4.754;2022-08-25T16:06:32;34.00;48.50
8862;DHT22;4799;50.996;4.754;2022-08-25T16:08:59;33.80;49.50
8862;DHT22;4799;50.996;4.754;2022-08-25T16:11:27;33.70;51.90
8862;DHT22;4799;50.996;4.754;2022-08-25T16:13:54;33.50;54.30
8862;DHT22;4799;50.996;4.754;2022-08-25T16:16:23;33.30;56.40
8862;DHT22;4799;50.996;4.754;2022-08-25T16:18:49;33.10;57.50
8862;DHT22;4799;50.996;4.754;2022-08-25T16:21:18;32.80;58.30
8862;DHT22;4799;50.996;4.754;2022-08-25T16:23:45;32.70;59.50
8862;DHT22;4799;50.996;4.754;2022-08-25T16:26:11;32.60;60.90
8862;DHT22;4799;50.996;4.754;2022-08-25T16:28:41;32.50;62.00
8862;DHT22;4799;50.996;4.754;2022-08-25T16:31:12;32.40;63.70
8862;DHT22;4799;50.996;4.754;2022-08-25T16:33:39;32.30;64.70
8862;DHT22;4799;50.996;4.754;2022-08-25T16:36:08;32.20;66.60
8862;DHT22;4799;50.996;4.754;2022-08-25T16:38:36;32.00;68.20
8862;DHT22;4799;50.996;4.754;2022-08-25T16:41:06;32.00;71.30
8862;DHT22;4799;50.996;4.754;2022-08-25T16:43:32;31.90;73.30
8862;DHT22;4799;50.996;4.754;2022-08-25T16:45:59;31.80;74.10
8862;DHT22;4799;50.996;4.754;2022-08-25T16:48:26;31.90;74.60
8862;DHT22;4799;50.996;4.754;2022-08-25T16:50:52;32.00;73.90
8862;DHT22;4799;50.996;4.754;2022-08-25T16:53:18;32.00;71.90
8862;DHT22;4799;50.996;4.754;2022-08-25T16:56:03;32.00;71.00
8862;DHT22;4799;50.996;4.754;2022-08-25T16:58:29;32.00;71.10
8862;DHT22;4799;50.996;4.754;2022-08-25T17:00:55;32.00;70.60
8862;DHT22;4799;50.996;4.754;2022-08-25T17:03:27;31.90;71.00
8862;DHT22;4799;50.996;4.754;2022-08-25T17:05:57;31.70;71.70
8862;DHT22;4799;50.996;4.754;2022-08-25T17:08:23;31.50;73.10
8862;DHT22;4799;50.996;4.754;2022-08-25T17:11:04;31.40;74.20
8862;DHT22;4799;50.996;4.754;2022-08-25T17:13:31;31.30;75.80
8862;DHT22;4799;50.996;4.754;2022-08-25T17:15:57;31.20;76.60
8862;DHT22;4799;50.996;4.754;2022-08-25T17:18:23;31.10;77.70
8862;DHT22;4799;50.996;4.754;2022-08-25T17:21:00;30.90;78.80
8862;DHT22;4799;50.996;4.754;2022-08-25T17:23:26;30.70;79.80
8862;DHT22;4799;50.996;4.754;2022-08-25T17:25:52;30.40;80.90
8862;DHT22;4799;50.996;4.754;2022-08-25T17:28:18;30.30;81.20
8862;DHT22;4799;50.996;4.754;2022-08-25T17:30:44;30.00;83.20
8862;DHT22;4799;50.996;4.754;2022-08-25T17:33:11;29.80;84.90
8862;DHT22;4799;50.996;4.754;2022-08-25T17:35:44;29.70;86.40
8862;DHT22;4799;50.996;4.754;2022-08-25T17:38:11;29.60;88.60
8862;DHT22;4799;50.996;4.754;2022-08-25T17:40:37;29.40;90.40
8862;DHT22;4799;50.996;4.754;2022-08-25T17:43:03;29.20;90.90
8862;DHT22;4799;50.996;4.754;2022-08-25T17:45:31;29.00;91.40
8862;DHT22;4799;50.996;4.754;2022-08-25T17:47:57;28.80;91.90
8862;DHT22;4799;50.996;4.754;2022-08-25T17:50:23;28.80;92.80
8862;DHT22;4799;50.996;4.754;2022-08-25T17:52:50;28.60;93.10
8862;DHT22;4799;50.996;4.754;2022-08-25T17:55:17;28.40;93.90
8862;DHT22;4799;50.996;4.754;2022-08-25T17:57:48;28.30;94.40
8862;DHT22;4799;50.996;4.754;2022-08-25T18:00:16;28.20;95.00
8862;DHT22;4799;50.996;4.754;2022-08-25T18:02:42;28.00;95.90
8862;DHT22;4799;50.996;4.754;2022-08-25T18:05:09;28.00;96.20
8862;DHT22;4799;50.996;4.754;2022-08-25T18:07:35;27.90;96.50
8862;DHT22;4799;50.996;4.754;2022-08-25T18:10:06;27.70;97.30
8862;DHT22;4799;50.996;4.754;2022-08-25T18:12:32;27.70;97.70
8862;DHT22;4799;50.996;4.754;2022-08-25T18:14:59;27.70;98.40
8862;DHT22;4799;50.996;4.754;2022-08-25T18:17:25;27.60;99.20
8862;DHT22;4799;50.996;4.754;2022-08-25T18:19:52;27.50;99.60
8862;DHT22;4799;50.996;4.754;2022-08-25T18:22:19;27.30;99.90